Time;durP1;ratioP1;P1;durP2;ratioP2;P2;SDS_P1;SDS_P2;PMS_P1;PMS_P2;Temp;Humidity;BMP_temperature;BMP_pressure;BME280_temperature;BME280_humidity;BME280_pressure;Samples;Min_cycle;Max_cycle;Signal;HPM_P1;HPM_P2
2023/03/29 00:01:40;;;;;;;6.78;3.45;;;;;;;;;;5040205;28;20060;-57
2023/03/29 00:04:08;;;;;;;7.25;3.67;;;;;;;;;;5035028;28;20049;-57
2023/03/29 00:06:34;;;;;;;7.13;3.70;;;;;;;;;;5046455;28;20041;-56
2023/03/29 00:09:04;;;;;;;5.20;3.40;;;;;;;;;;5044073;28;20068;-56
2023/03/29 00:11:30;;;;;;;6.07;3.40;;;;;;;;;;5049079;28;20111;-56
2023/03/29 00:13:56;;;;;;;6.40;3.78;;;;;;;;;;5046748;28;20075;-57
2023/03/29 00:16:22;;;;;;;7.18;4.70;;;;;;;;;;5050323;28;20105;-56
2023/03/29 00:18:48;;;;;;;8.52;4.95;;;;;;;;;;5049614;28;20044;-56
2023/03/29 00:21:14;;;;;;;4.10;3.03;;;;;;;;;;5045957;28;20036;-57
2023/03/29 00:23:41;;;;;;;6.13;3.88;;;;;;;;;;5052767;28;20076;-56
2023/03/29 00:26:07;;;;;;;4.43;3.20;;;;;;;;;;5044951;28;20044;-56
2023/03/29 00:28:33;;;;;;;9.27;4.10;;;;;;;;;;5046115;28;20036;-56
2023/03/29 00:31:06;;;;;;;6.95;3.50;;;;;;;;;;5031758;28;20129;-57
2023/03/29 00:33:33;;;;;;;6.25;3.70;;;;;;;;;;5051722;28;20040;-56
2023/03/29 00:35:59;;;;;;;4.88;3.20;;;;;;;;;;5048717;28;20441;-56
2023/03/29 00:38:25;;;;;;;7.93;3.88;;;;;;;;;;5048052;28;20124;-56
2023/03/29 00:40:51;;;;;;;5.43;3.53;;;;;;;;;;5051560;28;20271;-56
2023/03/29 00:43:17;;;;;;;6.55;3.25;;;;;;;;;;5054189;28;20544;-56
2023/03/29 00:45:44;;;;;;;6.35;3.65;;;;;;;;;;5045916;28;20518;-57
2023/03/29 00:48:11;;;;;;;5.90;3.35;;;;;;;;;;5030362;28;20048;-57
2023/03/29 00:50:38;;;;;;;6.30;3.40;;;;;;;;;;5056444;28;20036;-56
2023/03/29 00:53:06;;;;;;;4.25;3.13;;;;;;;;;;5052016;28;20033;-56
2023/03/29 00:55:37;;;;;;;9.40;3.95;;;;;;;;;;5043098;28;20066;-56
2023/03/29 00:58:04;;;;;;;6.93;4.00;;;;;;;;;;5057880;28;20059;-56
2023/03/29 01:00:32;;;;;;;5.93;4.13;;;;;;;;;;5056221;28;20526;-56
2023/03/29 01:02:59;;;;;;;4.72;2.92;;;;;;;;;;5048304;28;20655;-56
2023/03/29 01:05:29;;;;;;;5.05;3.38;;;;;;;;;;5048587;28;20047;-56
2023/03/29 01:08:00;;;;;;;8.20;3.65;;;;;;;;;;5055487;28;20106;-56
2023/03/29 01:10:31;;;;;;;9.45;3.72;;;;;;;;;;5055400;28;20036;-56
2023/03/29 01:13:00;;;;;;;4.63;3.20;;;;;;;;;;5046081;28;20049;-56
2023/03/29 01:15:27;;;;;;;8.68;3.45;;;;;;;;;;5044784;28;20158;-56
2023/03/29 01:17:56;;;;;;;7.72;3.55;;;;;;;;;;5047961;28;20045;-56
2023/03/29 01:20:26;;;;;;;5.95;3.20;;;;;;;;;;5050299;28;20390;-57
2023/03/29 01:23:15;;;;;;;4.38;2.63;;;;;;;;;;5048334;28;20630;-56
2023/03/29 01:25:41;;;;;;;4.05;3.10;;;;;;;;;;5056593;28;20490;-56
2023/03/29 01:28:12;;;;;;;4.65;3.00;;;;;;;;;;5057824;28;20045;-57
2023/03/29 01:30:42;;;;;;;5.10;3.20;;;;;;;;;;5047401;28;20073;-56
2023/03/29 01:33:11;;;;;;;4.05;2.90;;;;;;;;;;5048438;28;20056;-56
2023/03/29 01:35:42;;;;;;;8.05;3.42;;;;;;;;;;5054907;28;20091;-56
2023/03/29 01:38:21;;;;;;;5.63;2.90;;;;;;;;;;5037535;28;20123;-56
2023/03/29 01:40:47;;;;;;;4.70;2.83;;;;;;;;;;5046816;28;20443;-56
2023/03/29 01:43:46;;;;;;;8.10;3.33;;;;;;;;;;5029202;28;20033;-56
2023/03/29 01:46:23;;;;;;;5.43;3.55;;;;;;;;;;4993295;28;20140;-57
2023/03/29 01:48:57;;;;;;;7.45;3.20;;;;;;;;;;5041087;28;20052;-57
2023/03/29 01:51:25;;;;;;;8.95;3.50;;;;;;;;;;5025981;28;20033;-56
2023/03/29 01:53:58;;;;;;;3.53;2.20;;;;;;;;;;5043010;28;20453;-57
2023/03/29 01:56:27;;;;;;;6.70;2.90;;;;;;;;;;5043932;28;20440;-56
2023/03/29 01:58:55;;;;;;;3.95;2.63;;;;;;;;;;5040025;28;20056;-56
2023/03/29 02:01:24;;;;;;;4.95;2.70;;;;;;;;;;5037573;28;20048;-56
2023/03/29 02:03:53;;;;;;;6.38;2.83;;;;;;;;;;5042585;28;20375;-57
2023/03/29 02:06:22;;;;;;;6.45;3.20;;;;;;;;;;5044718;28;20071;-57
2023/03/29 02:08:50;;;;;;;7.22;3.33;;;;;;;;;;5046320;28;20080;-57
2023/03/29 02:11:16;;;;;;;4.47;3.08;;;;;;;;;;5025237;28;20073;-56
2023/03/29 02:13:42;;;;;;;5.25;3.35;;;;;;;;;;5037508;28;20053;-57
2023/03/29 02:16:13;;;;;;;6.50;2.53;;;;;;;;;;5044343;28;20045;-56
2023/03/29 02:18:40;;;;;;;8.63;3.58;;;;;;;;;;5047479;28;20130;-57
2023/03/29 02:21:08;;;;;;;9.43;3.65;;;;;;;;;;5050196;28;20057;-56
2023/03/29 02:23:39;;;;;;;4.53;2.90;;;;;;;;;;5032585;28;20705;-56
2023/03/29 02:26:07;;;;;;;6.95;3.28;;;;;;;;;;5049867;28;20111;-56
2023/03/29 02:28:33;;;;;;;4.78;3.10;;;;;;;;;;5050227;28;20045;-57
2023/03/29 02:31:01;;;;;;;5.85;3.60;;;;;;;;;;5044130;28;20079;-56
2023/03/29 02:33:44;;;;;;;5.60;3.22;;;;;;;;;;5046923;28;20080;-56
2023/03/29 02:36:29;;;;;;;4.82;3.30;;;;;;;;;;5030896;28;20041;-57
2023/03/29 02:38:55;;;;;;;6.20;3.30;;;;;;;;;;5038917;28;20402;-56
2023/03/29 02:41:23;;;;;;;3.72;2.42;;;;;;;;;;5045323;28;20044;-59
2023/03/29 02:43:50;;;;;;;5.97;3.30;;;;;;;;;;5025913;28;20036;-57
2023/03/29 02:46:17;;;;;;;4.97;3.13;;;;;;;;;;5027320;28;20042;-57
2023/03/29 02:48:45;;;;;;;6.25;3.10;;;;;;;;;;5052641;28;20443;-56
2023/03/29 02:51:14;;;;;;;6.40;3.33;;;;;;;;;;5052127;28;20051;-56
2023/03/29 02:53:42;;;;;;;5.60;3.35;;;;;;;;;;5048089;28;20040;-56
2023/03/29 02:56:08;;;;;;;7.63;3.47;;;;;;;;;;5051396;28;20072;-57
2023/03/29 02:58:35;;;;;;;7.65;3.65;;;;;;;;;;5052605;28;20358;-57
2023/03/29 03:01:02;;;;;;;7.80;3.50;;;;;;;;;;5053268;28;20124;-57
2023/03/29 03:03:28;;;;;;;6.20;2.88;;;;;;;;;;5044143;28;20042;-57
2023/03/29 03:05:54;;;;;;;6.22;3.33;;;;;;;;;;5048576;28;20168;-56
2023/03/29 03:08:21;;;;;;;7.30;3.55;;;;;;;;;;5044999;28;20033;-57
2023/03/29 03:10:47;;;;;;;9.90;3.50;;;;;;;;;;5056168;28;20036;-57
2023/03/29 03:13:13;;;;;;;6.30;3.60;;;;;;;;;;5043951;28;20040;-57
2023/03/29 03:15:41;;;;;;;5.97;3.40;;;;;;;;;;5050817;28;20093;-56
2023/03/29 03:18:08;;;;;;;6.63;4.53;;;;;;;;;;5044132;28;20040;-56
2023/03/29 03:20:34;;;;;;;6.80;4.03;;;;;;;;;;5049188;28;20033;-56
2023/03/29 03:23:02;;;;;;;6.95;3.60;;;;;;;;;;5051405;28;20081;-57
2023/03/29 03:25:28;;;;;;;8.07;4.50;;;;;;;;;;5049688;28;20087;-56
2023/03/29 03:27:54;;;;;;;5.78;3.40;;;;;;;;;;5057954;28;20111;-56
2023/03/29 03:30:21;;;;;;;5.28;3.33;;;;;;;;;;5034311;28;20362;-57
2023/03/29 03:32:48;;;;;;;8.00;4.38;;;;;;;;;;5050958;28;20040;-56
2023/03/29 03:35:15;;;;;;;7.10;4.03;;;;;;;;;;5047994;28;20044;-56
2023/03/29 03:37:41;;;;;;;7.53;4.38;;;;;;;;;;5055229;28;20417;-56
2023/03/29 03:40:10;;;;;;;6.45;3.78;;;;;;;;;;5031679;28;20045;-57
2023/03/29 03:42:37;;;;;;;7.68;4.13;;;;;;;;;;5048345;28;20045;-56
2023/03/29 03:45:04;;;;;;;6.57;3.78;;;;;;;;;;5035898;28;20095;-57
2023/03/29 03:47:30;;;;;;;6.32;4.30;;;;;;;;;;5052479;28;20055;-56
2023/03/29 03:49:56;;;;;;;5.18;3.83;;;;;;;;;;5050276;28;20497;-57
2023/03/29 03:52:22;;;;;;;6.82;4.80;;;;;;;;;;5047480;28;20029;-56
2023/03/29 03:54:49;;;;;;;8.43;5.45;;;;;;;;;;5048841;28;20099;-57
2023/03/29 03:57:16;;;;;;;6.32;3.90;;;;;;;;;;5053793;28;20059;-56
2023/03/29 03:59:42;;;;;;;6.60;4.15;;;;;;;;;;5050769;28;20458;-56
2023/03/29 04:02:09;;;;;;;6.95;3.85;;;;;;;;;;5057580;28;20155;-56
2023/03/29 04:04:35;;;;;;;7.38;4.25;;;;;;;;;;5055488;28;20037;-57
2023/03/29 04:07:04;;;;;;;7.25;4.10;;;;;;;;;;5052287;28;20036;-57
2023/03/29 04:09:31;;;;;;;6.68;3.75;;;;;;;;;;5030924;28;20491;-57
2023/03/29 04:11:58;;;;;;;8.40;4.13;;;;;;;;;;5054911;28;20481;-57
2023/03/29 04:14:24;;;;;;;8.27;3.80;;;;;;;;;;5047730;28;20052;-56
2023/03/29 04:16:51;;;;;;;8.80;4.47;;;;;;;;;;5044298;28;20056;-57
2023/03/29 04:19:17;;;;;;;9.43;4.43;;;;;;;;;;5044225;28;20269;-56
2023/03/29 04:21:46;;;;;;;6.30;5.13;;;;;;;;;;5029010;28;20045;-56
2023/03/29 04:24:13;;;;;;;10.15;4.65;;;;;;;;;;5043570;28;20068;-56
2023/03/29 04:26:39;;;;;;;8.00;4.97;;;;;;;;;;5045294;28;20514;-56
2023/03/29 04:29:05;;;;;;;7.78;5.00;;;;;;;;;;5031087;28;20481;-57
2023/03/29 04:31:32;;;;;;;7.13;4.78;;;;;;;;;;5034004;28;20041;-57
2023/03/29 04:33:58;;;;;;;6.65;4.57;;;;;;;;;;5049208;28;20181;-57
2023/03/29 04:36:24;;;;;;;8.77;4.88;;;;;;;;;;5030401;28;20116;-56
2023/03/29 04:38:54;;;;;;;7.60;5.25;;;;;;;;;;5048438;28;20477;-57
2023/03/29 04:41:20;;;;;;;9.63;4.13;;;;;;;;;;5052639;28;20045;-57
2023/03/29 04:43:46;;;;;;;10.85;4.70;;;;;;;;;;5049814;28;20037;-56
2023/03/29 04:46:13;;;;;;;7.80;4.28;;;;;;;;;;5046010;28;20060;-57
2023/03/29 04:48:40;;;;;;;8.45;4.43;;;;;;;;;;5052024;28;20137;-57
2023/03/29 04:51:06;;;;;;;6.47;4.88;;;;;;;;;;5052873;28;20199;-57
2023/03/29 04:53:33;;;;;;;8.15;4.30;;;;;;;;;;5047451;28;20455;-57
2023/03/29 04:55:59;;;;;;;6.60;4.90;;;;;;;;;;5048344;28;20119;-57
2023/03/29 04:58:26;;;;;;;7.05;4.82;;;;;;;;;;5049669;28;20033;-57
2023/03/29 05:00:56;;;;;;;7.63;5.03;;;;;;;;;;5023549;28;20048;-57
2023/03/29 05:03:22;;;;;;;10.13;5.65;;;;;;;;;;5049740;28;20564;-57
2023/03/29 05:05:49;;;;;;;6.05;4.45;;;;;;;;;;5049612;28;20398;-57
2023/03/29 05:08:15;;;;;;;6.13;4.57;;;;;;;;;;5048407;28;20029;-57
2023/03/29 05:10:46;;;;;;;5.47;4.38;;;;;;;;;;5049150;28;20059;-57
2023/03/29 05:13:12;;;;;;;7.85;4.70;;;;;;;;;;5026506;28;20450;-57
2023/03/29 05:15:38;;;;;;;7.85;5.38;;;;;;;;;;5046163;28;20094;-57
2023/03/29 05:18:04;;;;;;;7.30;4.43;;;;;;;;;;5037651;28;21151;-57
2023/03/29 05:20:30;;;;;;;14.57;5.20;;;;;;;;;;5048218;28;20032;-57
2023/03/29 05:22:57;;;;;;;10.90;5.20;;;;;;;;;;5048380;28;20037;-57
2023/03/29 05:25:24;;;;;;;12.20;5.20;;;;;;;;;;5043739;28;20524;-57
2023/03/29 05:27:51;;;;;;;10.15;5.82;;;;;;;;;;5054783;28;20041;-57
2023/03/29 05:30:17;;;;;;;13.95;6.13;;;;;;;;;;5045741;28;20468;-57
2023/03/29 05:32:43;;;;;;;9.18;5.97;;;;;;;;;;5028405;28;20462;-57
2023/03/29 05:35:10;;;;;;;8.98;5.22;;;;;;;;;;5038164;28;20053;-57
2023/03/29 05:37:37;;;;;;;8.98;6.10;;;;;;;;;;5036581;28;20049;-57
2023/03/29 05:40:06;;;;;;;6.93;5.20;;;;;;;;;;5041611;28;20041;-57
2023/03/29 05:42:33;;;;;;;9.15;6.57;;;;;;;;;;5050074;28;20044;-57
2023/03/29 05:44:59;;;;;;;11.15;6.25;;;;;;;;;;5041823;28;20057;-57
2023/03/29 05:47:25;;;;;;;9.43;5.50;;;;;;;;;;5045890;28;20082;-57
2023/03/29 05:49:51;;;;;;;16.30;6.88;;;;;;;;;;5043252;28;20413;-57
2023/03/29 05:52:18;;;;;;;12.50;6.65;;;;;;;;;;5046173;28;20512;-57
2023/03/29 05:54:44;;;;;;;13.80;7.78;;;;;;;;;;5034921;28;20045;-57
2023/03/29 05:57:11;;;;;;;11.73;6.35;;;;;;;;;;5051860;28;20060;-57
2023/03/29 05:59:37;;;;;;;16.52;7.72;;;;;;;;;;5056109;28;20060;-57
2023/03/29 06:02:03;;;;;;;12.20;7.57;;;;;;;;;;5050489;28;20141;-57
2023/03/29 06:04:30;;;;;;;12.20;7.63;;;;;;;;;;5056749;28;20162;-57
2023/03/29 06:06:59;;;;;;;13.35;7.43;;;;;;;;;;5053686;28;20047;-57
2023/03/29 06:09:25;;;;;;;14.55;8.30;;;;;;;;;;5052348;28;20185;-57
2023/03/29 06:11:51;;;;;;;10.52;8.02;;;;;;;;;;5051525;28;20041;-57
2023/03/29 06:14:18;;;;;;;10.75;7.45;;;;;;;;;;5054182;28;20041;-57
2023/03/29 06:16:45;;;;;;;9.57;6.85;;;;;;;;;;5052431;28;20116;-57
2023/03/29 06:19:11;;;;;;;9.65;7.95;;;;;;;;;;5052237;28;20071;-57
2023/03/29 06:21:37;;;;;;;11.23;7.20;;;;;;;;;;5051142;28;20049;-58
2023/03/29 06:24:04;;;;;;;9.63;7.45;;;;;;;;;;5052560;28;20045;-57
2023/03/29 06:26:30;;;;;;;10.85;7.50;;;;;;;;;;5053088;28;20029;-57
2023/03/29 06:28:57;;;;;;;12.10;7.45;;;;;;;;;;5049476;28;20105;-57
2023/03/29 06:31:23;;;;;;;15.63;7.43;;;;;;;;;;5049847;28;20041;-57
2023/03/29 06:33:49;;;;;;;13.52;7.78;;;;;;;;;;5054580;28;20108;-57
2023/03/29 06:36:15;;;;;;;11.88;7.88;;;;;;;;;;5053072;28;20045;-57
2023/03/29 06:38:44;;;;;;;10.93;7.75;;;;;;;;;;5051363;28;20567;-57
2023/03/29 06:41:10;;;;;;;11.07;7.78;;;;;;;;;;5056419;28;20077;-57
2023/03/29 06:43:37;;;;;;;13.23;7.70;;;;;;;;;;5055721;28;20102;-57
2023/03/29 06:46:04;;;;;;;11.02;7.22;;;;;;;;;;5050426;28;20057;-57
2023/03/29 06:48:30;;;;;;;16.30;7.82;;;;;;;;;;5053801;28;20037;-57
2023/03/29 06:50:56;;;;;;;13.77;6.55;;;;;;;;;;5030934;28;20071;-58
2023/03/29 06:53:22;;;;;;;11.27;7.55;;;;;;;;;;5048451;28;20041;-57
2023/03/29 06:55:50;;;;;;;11.85;8.10;;;;;;;;;;5046678;28;20036;-57
2023/03/29 06:58:16;;;;;;;10.77;7.57;;;;;;;;;;5052518;28;20041;-57
2023/03/29 07:00:42;;;;;;;9.57;6.70;;;;;;;;;;5031176;28;20080;-57
2023/03/29 07:03:12;;;;;;;9.68;7.00;;;;;;;;;;5050995;28;20056;-57
2023/03/29 07:05:40;;;;;;;10.52;7.25;;;6.00;99.90;;;;;;5049954;28;20048;-57
2023/03/29 07:10:42;;;;;;;14.65;7.88;;;6.30;99.90;;;;;;5061457;28;20049;-57
2023/03/29 07:13:12;;;;;;;9.32;6.22;;;6.40;99.90;;;;;;5050268;28;20025;-58
2023/03/29 07:15:40;;;;;;;11.73;6.32;;;6.40;99.90;;;;;;5048593;28;20121;-57
2023/03/29 07:18:07;;;;;;;10.40;6.53;;;6.40;99.90;;;;;;5050203;28;20040;-57
2023/03/29 07:20:33;;;;;;;9.70;6.57;;;6.50;99.90;;;;;;5034213;28;20527;-57
2023/03/29 07:23:00;;;;;;;10.60;6.65;;;6.50;99.90;;;;;;5040446;28;20045;-57
2023/03/29 07:25:26;;;;;;;10.77;7.00;;;;;;;;;;5053061;28;20037;-57
2023/03/29 07:27:53;;;;;;;11.85;6.88;;;;;;;;;;5059777;28;20083;-57
2023/03/29 07:30:20;;;;;;;10.70;6.68;;;;;;;;;;5055591;28;20032;-57
2023/03/29 07:32:47;;;;;;;15.55;7.57;;;;;;;;;;5049400;28;20067;-57
2023/03/29 07:35:14;;;;;;;11.27;6.88;;;;;;;;;;5051065;28;20037;-57
2023/03/29 07:37:43;;;;;;;9.18;7.10;;;;;;;;;;5054755;28;20040;-57
2023/03/29 07:40:14;;;;;;;10.15;6.20;;;;;;;;;;5046244;28;20052;-57
2023/03/29 07:42:42;;;;;;;9.85;6.72;;;;;;;;;;5059460;28;20045;-57
2023/03/29 07:45:09;;;;;;;13.20;7.18;;;;;;;;;;5044854;28;20149;-61
2023/03/29 07:47:35;;;;;;;8.52;6.65;;;;;;;;;;5047965;28;20049;-57
2023/03/29 07:50:01;;;;;;;9.95;6.88;;;;;;;;;;5025362;28;20436;-57
2023/03/29 07:52:28;;;;;;;9.10;6.22;;;;;;;;;;5048294;28;20421;-57
2023/03/29 07:54:55;;;;;;;14.40;7.47;;;;;;;;;;5052278;28;20044;-57
2023/03/29 07:57:22;;;;;;;10.82;6.95;;;;;;;;;;5051172;28;20123;-57
2023/03/29 07:59:48;;;;;;;10.57;6.88;;;;;;;;;;5053963;28;20048;-58
2023/03/29 08:02:14;;;;;;;15.00;7.72;;;;;;;;;;5055363;28;20117;-57
2023/03/29 08:04:41;;;;;;;11.55;7.63;;;;;;;;;;5031628;28;20040;-57
2023/03/29 08:07:07;;;;;;;10.35;6.85;;;;;;;;;;5048873;28;20131;-57
2023/03/29 08:09:34;;;;;;;11.23;6.97;;;;;;;;;;5048908;28;20107;-57
2023/03/29 08:12:00;;;;;;;12.07;7.63;;;;;;;;;;5030493;28;20037;-57
2023/03/29 08:14:27;;;;;;;15.38;8.52;;;;;;;;;;5049187;28;20041;-57
2023/03/29 08:16:53;;;;;;;14.18;6.97;;;6.50;99.90;;;;;;5031561;28;20049;-58
2023/03/29 08:19:20;;;;;;;12.65;7.57;;;;;;;;;;5050942;28;20067;-57
2023/03/29 08:21:46;;;;;;;10.82;7.38;;;;;;;;;;5048512;28;20129;-57
2023/03/29 08:24:13;;;;;;;14.23;8.07;;;;;;;;;;5050172;28;20474;-57
2023/03/29 08:26:39;;;;;;;9.10;6.55;;;;;;;;;;5046016;28;20087;-57
2023/03/29 08:29:07;;;;;;;10.48;6.40;;;;;;;;;;5049146;28;20048;-58
2023/03/29 08:31:34;;;;;;;10.93;6.40;;;;;;;;;;5036851;28;20068;-57
2023/03/29 08:34:00;;;;;;;12.82;7.32;;;;;;;;;;5032243;28;20127;-57
2023/03/29 08:36:26;;;;;;;13.05;7.50;;;;;;;;;;5051210;28;20044;-58
2023/03/29 08:38:53;;;;;;;12.75;7.18;;;;;;;;;;5046380;28;20045;-57
2023/03/29 08:41:33;;;;;;;11.88;7.28;;;;;;;;;;5055786;28;20044;-58
2023/03/29 08:44:01;;;;;;;9.00;6.35;;;;;;;;;;5034065;28;20041;-57
2023/03/29 08:46:33;;;;;;;9.25;7.22;;;;;;;;;;5047417;28;20049;-57
2023/03/29 08:49:02;;;;;;;9.93;6.97;;;;;;;;;;5051984;28;20450;-57
2023/03/29 08:51:34;;;;;;;9.20;5.88;;;;;;;;;;5044733;28;20062;-57
2023/03/29 08:54:23;;;;;;;16.80;7.70;;;;;;;;;;5031402;28;20033;-58
2023/03/29 08:56:50;;;;;;;17.48;8.05;;;;;;;;;;5046760;28;20064;-57
2023/03/29 08:59:25;;;;;;;11.23;6.55;;;;;;;;;;5048068;28;20037;-57
2023/03/29 09:01:53;;;;;;;10.50;6.97;;;;;;;;;;5027902;28;20485;-58
2023/03/29 09:04:23;;;;;;;11.48;7.15;;;;;;;;;;5048027;28;20541;-58
2023/03/29 09:06:49;;;;;;;14.55;8.15;;;;;;;;;;5050526;28;20052;-57
2023/03/29 09:09:18;;;;;;;13.23;8.18;;;;;;;;;;5046343;28;20385;-57
2023/03/29 09:11:56;;;;;;;12.10;8.07;;;;;;;;;;5048629;28;20098;-57
2023/03/29 09:14:41;;;;;;;13.27;8.68;;;;;;;;;;5047925;28;20047;-57
2023/03/29 09:17:46;;;;;;;12.18;8.70;;;7.20;99.90;;;;;;5048116;28;20049;-58
2023/03/29 09:20:55;;;;;;;14.77;7.07;;;8.00;99.90;;;;;;5042040;28;20552;-57
2023/03/29 09:23:45;;;;;;;13.43;9.07;;;8.10;99.90;;;;;;5035116;28;20061;-58
2023/03/29 09:26:36;;;;;;;11.85;7.97;;;8.20;99.90;;;;;;5050423;28;20584;-57
2023/03/29 09:29:14;;;;;;;21.35;7.70;;;8.20;99.90;;;;;;5049567;28;20040;-58
2023/03/29 09:31:43;;;;;;;26.13;9.48;;;8.20;99.90;;;;;;5050125;28;20589;-58
2023/03/29 09:34:17;;;;;;;11.70;8.27;;;8.30;99.90;;;;;;5024771;28;20381;-57
2023/03/29 09:37:08;;;;;;;13.52;8.90;;;8.30;99.90;;;;;;5052523;28;20089;-57
2023/03/29 09:39:36;;;;;;;14.05;8.60;;;8.40;99.90;;;;;;5050857;28;20056;-57
2023/03/29 09:42:07;;;;;;;18.52;8.73;;;8.40;99.90;;;;;;5051377;28;20157;-57
2023/03/29 09:44:43;;;;;;;11.65;8.10;;;8.50;99.90;;;;;;5052690;28;20127;-57
2023/03/29 09:47:28;;;;;;;18.42;9.88;;;8.50;99.90;;;;;;5046832;28;20107;-57
2023/03/29 09:49:59;;;;;;;18.38;10.00;;;8.50;99.90;;;;;;5048677;28;20048;-57
2023/03/29 09:52:25;;;;;;;15.65;10.43;;;8.60;99.90;;;;;;5047613;28;20029;-58
2023/03/29 09:54:51;;;;;;;15.80;9.18;;;;;;;;;;5051582;28;20166;-57
2023/03/29 09:57:18;;;;;;;17.23;10.00;;;;;;;;;;5051337;28;20041;-57
2023/03/29 09:59:49;;;;;;;19.83;10.82;;;;;;;;;;5056453;28;20040;-57
2023/03/29 10:02:15;;;;;;;18.13;10.00;;;;;;;;;;5051050;28;20048;-57
2023/03/29 10:04:41;;;;;;;18.23;10.88;;;;;;;;;;5056053;28;20105;-57
2023/03/29 10:07:09;;;;;;;20.20;11.77;;;;;;;;;;5053394;28;20110;-57
2023/03/29 10:09:35;;;;;;;17.33;11.43;;;;;;;;;;5052075;28;20040;-57
2023/03/29 10:12:05;;;;;;;21.05;13.07;;;;;;;;;;5051286;28;20037;-57
2023/03/29 10:14:33;;;;;;;20.00;12.15;;;;;;;;;;5048376;28;20051;-57
2023/03/29 10:16:59;;;;;;;18.13;12.35;;;;;;;;;;5053279;28;20045;-58
2023/03/29 10:19:27;;;;;;;23.75;12.50;;;8.60;99.90;;;;;;5049661;28;20116;-58
2023/03/29 10:21:54;;;;;;;14.52;10.07;;;;;;;;;;5057405;28;20048;-58
2023/03/29 10:24:22;;;;;;;17.08;10.63;;;;;;;;;;5055599;28;20045;-57
2023/03/29 10:26:54;;;;;;;20.13;11.43;;;;;;;;;;5052491;28;20500;-57
2023/03/29 10:29:20;;;;;;;21.27;12.87;;;;;;;;;;5052767;28;20127;-57
2023/03/29 10:31:47;;;;;;;24.33;13.30;;;;;;;;;;5052336;28;20605;-57
2023/03/29 10:34:15;;;;;;;23.55;12.85;;;;;;;;;;5056690;28;20037;-57
2023/03/29 10:36:44;;;;;;;16.10;12.55;;;;;;;;;;5052058;28;20136;-57
2023/03/29 10:39:13;;;;;;;16.60;11.93;;;;;;;;;;5035642;28;20481;-57
2023/03/29 10:41:39;;;;;;;17.10;12.07;;;;;;;;;;5050884;28;20712;-58
2023/03/29 10:44:07;;;;;;;20.70;12.48;;;;;;;;;;5052640;28;20048;-57
2023/03/29 10:46:40;;;;;;;22.77;12.02;;;;;;;;;;5048807;28;20053;-58
2023/03/29 10:49:15;;;;;;;21.38;13.30;;;;;;;;;;5054861;28;20119;-58
2023/03/29 10:51:44;;;;;;;27.08;15.52;;;;;;;;;;5049697;28;20437;-58
2023/03/29 10:54:13;;;;;;;24.85;14.32;;;9.10;99.90;;;;;;5048389;28;20116;-58
2023/03/29 10:56:41;;;;;;;20.73;14.07;;;;;;;;;;5027076;28;20371;-57
2023/03/29 10:59:08;;;;;;;23.17;14.75;;;;;;;;;;5033540;28;20621;-57
2023/03/29 11:01:39;;;;;;;17.60;14.05;;;;;;;;;;5049032;28;20045;-58
2023/03/29 11:04:24;;;;;;;23.08;15.60;;;;;;;;;;5053728;28;20041;-57
2023/03/29 11:06:56;;;;;;;22.10;15.30;;;;;;;;;;5044522;28;20033;-57
2023/03/29 11:09:22;;;;;;;22.42;15.82;;;;;;;;;;5033812;28;20036;-58
2023/03/29 11:11:51;;;;;;;24.98;15.63;;;;;;;;;;5047716;28;20494;-58
2023/03/29 11:14:26;;;;;;;25.85;15.88;;;;;;;;;;5049254;28;20116;-58
2023/03/29 11:17:06;;;;;;;23.42;16.02;;;;;;;;;;5053491;28;20102;-58
2023/03/29 11:19:44;;;;;;;24.52;15.35;;;;;;;;;;5057889;28;20072;-58
2023/03/29 11:22:10;;;;;;;28.95;17.98;;;;;;;;;;5046813;28;20051;-57
2023/03/29 11:24:36;;;;;;;27.17;16.63;;;;;;;;;;5050254;28;20091;-58
2023/03/29 11:27:06;;;;;;;26.33;15.60;;;;;;;;;;5057778;28;20052;-58
2023/03/29 11:29:50;;;;;;;28.00;16.23;;;;;;;;;;5048280;28;20036;-58
2023/03/29 11:32:20;;;;;;;24.52;15.75;;;;;;;;;;5048957;28;20040;-57
2023/03/29 11:34:56;;;;;;;23.85;16.90;;;;;;;;;;5059403;28;20139;-58
2023/03/29 11:37:31;;;;;;;22.92;14.95;;;;;;;;;;5058803;28;20044;-58
2023/03/29 11:40:16;;;;;;;24.00;15.05;;;;;;;;;;5045275;28;20203;-58
2023/03/29 11:42:46;;;;;;;22.60;16.33;;;;;;;;;;5050069;28;20044;-58
2023/03/29 11:45:14;;;;;;;27.05;15.63;;;;;;;;;;5054791;28;20056;-58
2023/03/29 11:47:41;;;;;;;23.05;14.15;;;;;;;;;;5045953;28;20037;-58
2023/03/29 11:50:19;;;;;;;23.90;15.18;;;;;;;;;;5029023;28;20080;-58
2023/03/29 11:52:58;;;;;;;29.92;17.70;;;;;;;;;;5032013;28;20032;-58
2023/03/29 11:55:26;;;;;;;28.00;15.13;;;;;;;;;;5051330;28;20037;-58
2023/03/29 11:57:58;;;;;;;23.88;16.20;;;;;;;;;;5055467;28;20060;-57
2023/03/29 12:00:29;;;;;;;24.30;15.70;;;;;;;;;;5047800;28;20240;-58
2023/03/29 12:03:23;;;;;;;24.73;15.95;;;10.40;99.90;;;;;;5045406;28;20498;-57
2023/03/29 12:05:50;;;;;;;;;;;10.60;99.90;;;;;;5043798;28;20099;-57
2023/03/29 12:08:37;;;;;;;29.42;17.50;;;10.60;99.90;;;;;;5042930;28;20012;-58
2023/03/29 12:11:09;;;;;;;30.17;15.73;;;10.60;99.90;;;;;;5049426;28;20059;-58
2023/03/29 12:13:41;;;;;;;27.77;17.93;;;10.70;99.90;;;;;;5054022;28;20045;-58
2023/03/29 12:16:31;;;;;;;30.48;18.48;;;10.70;99.90;;;;;;5046061;28;20045;-58
2023/03/29 12:19:03;;;;;;;27.45;16.85;;;10.70;99.90;;;;;;5049426;28;20442;-58
2023/03/29 12:21:31;;;;;;;25.77;16.48;;;10.70;99.90;;;;;;5054242;28;20146;-58
2023/03/29 12:23:57;;;;;;;28.08;15.82;;;10.70;99.90;;;;;;5051137;28;20093;-58
2023/03/29 12:26:51;;;;;;;30.77;16.92;;;10.80;99.90;;;;;;5042200;28;20037;-58
2023/03/29 12:29:49;;;;;;;25.30;16.65;;;10.80;99.90;;;;;;5040010;28;20098;-58
2023/03/29 12:32:37;;;;;;;28.38;17.45;;;10.80;99.90;;;;;;5052270;28;20475;-57
2023/03/29 12:35:45;;;;;;;23.58;16.30;;;10.80;99.90;;;;;;5049067;28;20053;-58
2023/03/29 12:38:26;;;;;;;27.10;18.10;;;10.80;99.90;;;;;;5034241;28;20060;-58
2023/03/29 12:41:00;;;;;;;25.58;16.98;;;10.80;99.90;;;;;;5041369;28;20037;-58
2023/03/29 12:43:31;;;;;;;25.67;17.05;;;10.80;99.90;;;;;;5047966;28;20055;-58
2023/03/29 12:46:07;;;;;;;27.50;16.70;;;10.80;99.90;;;;;;5022754;28;20053;-58
2023/03/29 12:48:37;;;;;;;23.40;16.02;;;10.80;99.90;;;;;;5027352;28;20101;-58
2023/03/29 12:51:07;;;;;;;32.42;18.15;;;10.80;99.90;;;;;;5030313;28;20046;-58
2023/03/29 12:53:38;;;;;;;20.98;15.38;;;10.90;99.90;;;;;;5026913;28;20031;-57
2023/03/29 12:56:07;;;;;;;23.15;15.70;;;10.90;99.90;;;;;;5030136;28;20065;-58
2023/03/29 12:58:40;;;;;;;26.73;17.48;;;;;;;;;;5030642;28;20044;-57
2023/03/29 13:01:08;;;;;;;23.60;16.55;;;;;;;;;;5030870;28;20144;-58
2023/03/29 13:03:34;;;;;;;21.75;15.63;;;;;;;;;;5023100;28;20068;-57
2023/03/29 13:06:02;;;;;;;25.30;17.23;;;;;;;;;;5030754;28;20446;-57
2023/03/29 13:08:38;;;;;;;30.88;17.80;;;;;;;;;;5035583;28;20406;-58
2023/03/29 13:11:05;;;;;;;27.77;17.00;;;;;;;;;;5019994;28;20180;-58
2023/03/29 13:13:35;;;;;;;23.60;17.08;;;;;;;;;;5026329;28;20079;-58
2023/03/29 13:16:12;;;;;;;28.52;19.77;;;;;;;;;;5026638;28;20559;-58
2023/03/29 13:18:46;;;;;;;24.00;16.75;;;;;;;;;;5032860;28;20056;-58
2023/03/29 13:21:23;;;;;;;24.90;18.65;;;;;;;;;;5007291;28;20037;-58
2023/03/29 13:24:04;;;;;;;26.15;17.60;;;;;;;;;;5017451;28;20090;-58
2023/03/29 13:26:44;;;;;;;29.20;18.25;;;;;;;;;;5043886;28;20119;-58
2023/03/29 13:29:19;;;;;;;26.95;17.55;;;;;;;;;;5026073;28;20049;-57
2023/03/29 13:32:03;;;;;;;24.92;17.63;;;;;;;;;;5024362;28;20384;-57
2023/03/29 13:34:35;;;;;;;31.85;19.63;;;;;;;;;;5017004;28;20527;-58
2023/03/29 13:37:13;;;;;;;34.50;20.10;;;;;;;;;;5026267;28;20073;-57
2023/03/29 13:39:48;;;;;;;31.05;19.27;;;;;;;;;;5028558;28;20090;-58
2023/03/29 13:42:37;;;;;;;24.80;19.05;;;;;;;;;;5030688;28;20057;-58
2023/03/29 13:45:28;;;;;;;24.30;17.88;;;10.90;99.90;;;;;;5040215;28;20504;-57
2023/03/29 13:48:01;;;;;;;28.75;18.42;;;;;;;;;;5048298;28;20036;-58
2023/03/29 13:50:35;;;;;;;23.55;17.20;;;;;;;;;;5041557;28;20044;-57
2023/03/29 13:53:14;;;;;;;27.25;18.95;;;;;;;;;;5044637;28;20029;-58
2023/03/29 13:55:51;;;;;;;24.50;17.27;;;;;;;;;;5046418;28;20174;-57
2023/03/29 13:58:27;;;;;;;19.42;16.10;;;;;;;;;;5046552;28;20132;-58
2023/03/29 14:01:09;;;;;;;19.13;14.18;;;;;;;;;;5048361;28;20490;-57
2023/03/29 14:03:40;;;;;;;26.73;14.73;;;;;;;;;;5043902;28;20128;-58
2023/03/29 14:06:06;;;;;;;20.00;14.27;;;;;;;;;;5048503;28;20072;-58
2023/03/29 14:08:36;;;;;;;20.65;14.68;;;;;;;;;;5045331;28;20048;-57
2023/03/29 14:11:04;;;;;;;19.13;13.48;;;;;;;;;;5047175;28;20399;-58
2023/03/29 14:13:30;;;;;;;20.52;13.68;;;;;;;;;;5045983;28;20044;-58
2023/03/29 14:16:01;;;;;;;17.83;13.82;;;;;;;;;;5030425;28;20040;-58
2023/03/29 14:18:29;;;;;;;18.75;13.82;;;;;;;;;;5033921;28;20088;-57
2023/03/29 14:20:55;;;;;;;20.88;14.57;;;;;;;;;;5050324;28;20036;-57
2023/03/29 14:23:26;;;;;;;23.38;14.00;;;;;;;;;;5049862;28;20037;-57
2023/03/29 14:25:53;;;;;;;19.67;14.80;;;;;;;;;;5046607;28;20072;-58
2023/03/29 14:28:23;;;;;;;19.80;13.60;;;;;;;;;;5049689;28;20098;-57
2023/03/29 14:30:51;;;;;;;18.80;13.57;;;;;;;;;;5054584;28;20052;-57
2023/03/29 14:33:28;;;;;;;17.38;13.48;;;;;;;;;;5045810;28;20115;-58
2023/03/29 14:35:55;;;;;;;24.70;16.15;;;;;;;;;;5048896;28;20107;-57